Terminal Aerodrome Forecast
Issued by NWS Chicago, IL

Home | Current Version | Previous Version | Graphics & Text | Print | Product List | Glossary On
Versions: 1 2 3 4 5 6 7 8 9 10 11 12 13 14 15 16 17 18 19 20 21 22 23
000
FTUS43 KLOT 232200 AAB
TAFRFD
TAF AMD
KRFD 232204Z 2322/2418 20011G17KT P6SM SCT025 BKN035
     FM240000 20005KT P6SM SCT025 BKN030
     FM240600 34004KT P6SM OVC100
     FM240900 36005KT 6SM BR SCT025 OVC100
     FM241500 36011G18KT 3SM -SN BR SCT008 OVC015 PROB30 2416/2418
      1SM -SN OVC008=

USA.gov is the U.S. government's official web portal to all federal, state and local government web resources and services.